createdAt,value
2019-05-18T00:02:22.170Z,12.93
2019-05-18T00:04:48.158Z,12.95
2019-05-18T00:07:14.135Z,12.92
2019-05-18T00:09:40.155Z,13.00
2019-05-18T00:12:06.184Z,13.01
2019-05-18T00:14:32.164Z,13.02
2019-05-18T00:16:58.174Z,13.00
2019-05-18T00:19:24.224Z,12.94
2019-05-18T00:21:50.305Z,12.96
2019-05-18T00:24:16.371Z,12.90
2019-05-18T00:26:42.406Z,12.95
2019-05-18T00:29:08.386Z,12.93
2019-05-18T00:31:34.455Z,12.94
2019-05-18T00:34:00.440Z,12.86
2019-05-18T00:36:27.332Z,12.74
2019-05-18T00:38:53.346Z,12.79
2019-05-18T00:41:19.336Z,12.78
2019-05-18T00:43:45.453Z,12.78
2019-05-18T00:46:11.477Z,12.74
2019-05-18T00:48:37.506Z,12.82
2019-05-18T00:51:03.848Z,12.76
2019-05-18T00:53:29.886Z,12.76
2019-05-18T00:55:55.933Z,12.78
2019-05-18T00:58:21.917Z,12.78
2019-05-18T01:00:47.981Z,12.80
2019-05-18T01:03:14.073Z,12.82
2019-05-18T01:05:40.120Z,12.77
2019-05-18T01:08:06.104Z,12.87
2019-05-18T01:10:32.080Z,12.88
2019-05-18T01:12:58.101Z,12.94
2019-05-18T01:15:24.089Z,12.91
2019-05-18T01:17:57.208Z,12.85
2019-05-18T01:20:18.285Z,12.90
2019-05-18T01:22:44.338Z,12.85
2019-05-18T01:25:10.505Z,12.88
2019-05-18T01:27:36.510Z,12.90
2019-05-18T01:30:08.118Z,12.92
2019-05-18T01:32:34.083Z,12.84
2019-05-18T01:35:00.110Z,12.66
2019-05-18T01:37:26.391Z,12.80
2019-05-18T01:39:52.568Z,12.76
2019-05-18T01:42:18.539Z,12.70
2019-05-18T01:44:44.580Z,12.67
2019-05-18T01:47:10.558Z,12.72
2019-05-18T01:49:36.633Z,12.65
2019-05-18T01:52:02.610Z,12.74
2019-05-18T01:54:28.761Z,12.59
2019-05-18T01:56:54.907Z,12.57
2019-05-18T01:59:20.901Z,12.50
2019-05-18T02:01:46.893Z,12.65
2019-05-18T02:04:12.948Z,12.62
2019-05-18T02:06:38.938Z,12.55
2019-05-18T02:09:06.650Z,12.56
2019-05-18T02:11:32.636Z,12.63
2019-05-18T02:13:58.738Z,12.67
2019-05-18T02:16:24.755Z,12.56
2019-05-18T02:18:50.777Z,12.44
2019-05-18T02:21:16.822Z,12.47
2019-05-18T02:23:42.957Z,12.46
2019-05-18T02:26:09.063Z,12.52
2019-05-18T02:28:35.045Z,12.45
2019-05-18T02:31:01.084Z,12.43
2019-05-18T02:33:27.157Z,12.31
2019-05-18T02:35:53.172Z,12.31
2019-05-18T02:38:19.273Z,12.37
2019-05-18T02:40:46.197Z,12.50
2019-05-18T02:43:12.886Z,12.44
2019-05-18T02:45:38.953Z,12.43
2019-05-18T02:48:05.191Z,12.27
2019-05-18T02:50:31.269Z,12.23
2019-05-18T02:52:57.317Z,12.23
2019-05-18T02:55:23.356Z,12.08
2019-05-18T02:57:49.411Z,12.15
2019-05-18T03:00:16.108Z,12.16
2019-05-18T03:02:42.186Z,12.12
2019-05-18T03:05:08.769Z,12.20
2019-05-18T03:07:34.898Z,12.17
2019-05-18T03:10:01.189Z,12.25
2019-05-18T03:12:27.237Z,12.34
2019-05-18T03:14:53.257Z,12.42
2019-05-18T03:17:19.505Z,12.48
2019-05-18T03:19:45.531Z,12.46
2019-05-18T03:22:11.497Z,12.44
2019-05-18T03:24:37.520Z,12.45
2019-05-18T03:27:03.513Z,12.48
2019-05-18T03:29:29.526Z,12.22
2019-05-18T03:31:55.605Z,12.21
2019-05-18T03:34:21.675Z,12.10
2019-05-18T03:36:47.781Z,12.02
2019-05-18T03:39:13.805Z,11.97
2019-05-18T03:41:39.801Z,12.15
2019-05-18T03:44:05.854Z,12.16
2019-05-18T03:46:31.839Z,12.27
2019-05-18T03:48:57.818Z,12.31
2019-05-18T03:51:23.823Z,12.32
2019-05-18T03:53:49.838Z,12.31
2019-05-18T03:56:15.809Z,12.30
2019-05-18T03:58:41.829Z,12.30
2019-05-18T04:01:07.806Z,12.34
2019-05-18T04:03:33.828Z,12.44
2019-05-18T04:05:59.831Z,12.36
2019-05-18T04:08:25.798Z,12.37
2019-05-18T04:10:51.838Z,12.35
2019-05-18T04:13:18.172Z,12.42
2019-05-18T04:15:44.189Z,12.37
2019-05-18T04:18:10.246Z,12.51
2019-05-18T04:20:36.654Z,12.56
2019-05-18T04:23:02.972Z,12.53
2019-05-18T04:25:29.009Z,12.62
2019-05-18T04:27:55.001Z,12.69
2019-05-18T04:30:21.027Z,12.63
2019-05-18T04:32:47.341Z,12.82
2019-05-18T04:35:13.471Z,12.87
2019-05-18T04:37:39.578Z,12.73
2019-05-18T04:40:06.216Z,12.85
2019-05-18T04:42:32.252Z,12.88
2019-05-18T04:44:58.245Z,12.96
2019-05-18T04:47:24.243Z,12.92
2019-05-18T04:50:04.451Z,13.07
2019-05-18T04:52:18.161Z,13.18
2019-05-18T04:54:44.172Z,13.07
2019-05-18T04:57:10.221Z,13.25
2019-05-18T04:59:36.197Z,13.14
2019-05-18T05:02:02.253Z,13.12
2019-05-18T05:04:28.369Z,13.15
2019-05-18T05:06:54.437Z,13.25
2019-05-18T05:09:20.456Z,13.31
2019-05-18T05:11:46.436Z,13.37
2019-05-18T05:14:12.500Z,13.46
2019-05-18T05:16:38.602Z,13.52
2019-05-18T05:19:04.780Z,13.52
2019-05-18T05:21:31.058Z,13.44
2019-05-18T05:23:57.008Z,13.37
2019-05-18T05:26:23.055Z,13.27
2019-05-18T05:28:49.048Z,13.38
2019-05-18T05:31:15.067Z,13.37
2019-05-18T05:33:41.095Z,13.39
2019-05-18T05:36:07.165Z,13.35
2019-05-18T05:38:33.267Z,13.49
2019-05-18T05:40:59.317Z,13.54
2019-05-18T05:43:25.453Z,13.43
2019-05-18T05:45:51.601Z,13.55
2019-05-18T05:48:17.575Z,13.39
2019-05-18T05:50:43.572Z,13.47
2019-05-18T05:53:09.592Z,13.45
2019-05-18T05:55:35.618Z,13.56
2019-05-18T05:58:01.641Z,13.67
2019-05-18T06:00:27.700Z,13.79
2019-05-18T06:02:53.790Z,13.70
2019-05-18T06:05:19.822Z,13.69
2019-05-18T06:07:45.882Z,13.79
2019-05-18T06:10:12.586Z,13.71
2019-05-18T06:12:38.604Z,13.81
2019-05-18T06:15:05.532Z,13.89
2019-05-18T06:17:31.556Z,13.94
2019-05-18T06:19:57.564Z,13.99
2019-05-18T06:22:23.622Z,14.09
2019-05-18T06:24:49.705Z,14.13
2019-05-18T06:27:15.680Z,14.19
2019-05-18T06:29:41.736Z,14.21
2019-05-18T06:32:07.739Z,14.26
2019-05-18T06:34:33.783Z,14.51
2019-05-18T06:36:59.794Z,14.55
2019-05-18T06:39:25.938Z,14.68
2019-05-18T06:41:52.270Z,14.85
2019-05-18T06:44:18.367Z,14.94
2019-05-18T06:46:44.504Z,15.22
2019-05-18T06:49:10.546Z,15.56
2019-05-18T06:51:36.572Z,15.73
2019-05-18T06:54:02.685Z,16.06
2019-05-18T06:56:30.930Z,16.69
2019-05-18T06:58:58.662Z,16.87
2019-05-18T07:01:24.658Z,16.57
2019-05-18T07:03:50.638Z,16.59
2019-05-18T07:06:16.707Z,16.70
2019-05-18T07:08:42.730Z,16.94
2019-05-18T07:11:08.734Z,17.25
2019-05-18T07:13:34.838Z,17.47
2019-05-18T07:16:00.824Z,18.13
2019-05-18T07:18:26.935Z,18.41
2019-05-18T07:20:52.971Z,17.76
2019-05-18T07:23:18.964Z,18.05
2019-05-18T07:25:45.024Z,18.59
2019-05-18T07:28:11.162Z,19.01
2019-05-18T07:30:37.230Z,19.26
2019-05-18T07:33:03.251Z,19.63
2019-05-18T07:35:29.279Z,19.54
2019-05-18T07:37:55.341Z,19.57
2019-05-18T07:40:21.373Z,19.74
2019-05-18T07:42:47.387Z,19.99
2019-05-18T07:45:13.684Z,19.99
2019-05-18T07:47:39.715Z,20.69
2019-05-18T07:50:06.355Z,20.76
2019-05-18T07:52:32.346Z,20.63
2019-05-18T07:54:58.341Z,20.63
2019-05-18T07:57:24.313Z,20.75
2019-05-18T07:59:50.315Z,20.85
2019-05-18T08:02:16.400Z,20.88
2019-05-18T08:04:42.469Z,21.22
2019-05-18T08:07:08.682Z,21.27
2019-05-18T08:09:34.925Z,21.51
2019-05-18T08:12:01.050Z,20.99
2019-05-18T08:14:27.280Z,21.25
2019-05-18T08:16:53.451Z,21.16
2019-05-18T08:19:19.620Z,21.03
2019-05-18T08:21:53.285Z,21.25
2019-05-18T08:24:13.863Z,21.50
2019-05-18T08:26:40.108Z,21.74
2019-05-18T08:29:06.095Z,21.79
2019-05-18T08:31:32.110Z,21.96
2019-05-18T08:33:58.275Z,22.32
2019-05-18T08:36:24.265Z,22.73
2019-05-18T08:38:50.272Z,22.76
2019-05-18T08:41:16.276Z,22.31
2019-05-18T08:43:42.297Z,22.34
2019-05-18T08:46:08.338Z,22.84
2019-05-18T08:48:34.320Z,22.81
2019-05-18T08:51:00.331Z,23.40
2019-05-18T08:53:26.609Z,23.70
2019-05-18T08:55:52.573Z,23.91
2019-05-18T08:58:18.621Z,24.27
2019-05-18T09:00:44.711Z,23.57
2019-05-18T09:03:10.744Z,24.00
2019-05-18T09:05:36.755Z,24.36
2019-05-18T09:08:02.734Z,24.47
2019-05-18T09:10:28.778Z,24.44
2019-05-18T09:12:54.836Z,24.72
2019-05-18T09:15:20.896Z,25.01
2019-05-18T09:17:47.008Z,25.08
2019-05-18T09:20:13.532Z,25.04
2019-05-18T09:22:39.608Z,24.71
2019-05-18T09:25:06.035Z,24.89
2019-05-18T09:27:32.061Z,25.02
2019-05-18T09:29:58.103Z,24.45
2019-05-18T09:32:24.110Z,24.71
2019-05-18T09:34:50.317Z,25.43
2019-05-18T09:37:16.572Z,25.86
2019-05-18T09:39:42.625Z,25.77
2019-05-18T09:42:08.727Z,26.03
2019-05-18T09:44:34.757Z,25.40
2019-05-18T09:47:00.764Z,26.24
2019-05-18T09:49:26.788Z,25.87
2019-05-18T09:51:52.820Z,26.22
2019-05-18T09:54:19.048Z,26.27
2019-05-18T09:56:45.036Z,26.76
2019-05-18T09:59:11.088Z,26.97
2019-05-18T10:01:37.168Z,27.39
2019-05-18T10:04:03.240Z,26.83
2019-05-18T10:06:31.459Z,26.94
2019-05-18T10:08:57.166Z,27.45
2019-05-18T10:11:23.213Z,27.42
2019-05-18T10:13:49.343Z,27.36
2019-05-18T10:16:15.312Z,27.59
2019-05-18T10:18:41.343Z,27.91
2019-05-18T10:21:07.448Z,27.57
2019-05-18T10:23:33.487Z,26.98
2019-05-18T10:25:59.451Z,27.04
2019-05-18T10:28:25.640Z,27.00
2019-05-18T10:30:51.668Z,26.94
2019-05-18T10:33:17.677Z,27.26
2019-05-18T10:35:43.768Z,27.43
2019-05-18T10:38:09.788Z,26.95
2019-05-18T10:40:35.758Z,27.02
2019-05-18T10:43:01.757Z,26.78
2019-05-18T10:45:27.802Z,26.84
2019-05-18T10:47:53.792Z,27.06
2019-05-18T10:50:19.846Z,27.02
2019-05-18T10:52:45.873Z,27.21
2019-05-18T10:55:12.032Z,27.11
2019-05-18T10:57:38.110Z,27.29
2019-05-18T11:00:09.612Z,27.04
2019-05-18T11:02:35.712Z,26.85
2019-05-18T11:05:02.649Z,27.14
2019-05-18T11:07:29.126Z,27.14
2019-05-18T11:09:55.196Z,27.24
2019-05-18T11:12:21.185Z,27.39
2019-05-18T11:14:47.182Z,27.54
2019-05-18T11:17:13.480Z,27.42
2019-05-18T11:19:39.457Z,27.12
2019-05-18T11:22:05.485Z,27.65
2019-05-18T11:24:31.500Z,27.32
2019-05-18T11:26:57.529Z,27.58
2019-05-18T11:29:24.379Z,27.34
2019-05-18T11:31:50.811Z,27.53
2019-05-18T11:34:16.940Z,27.88
2019-05-18T11:36:43.031Z,28.31
2019-05-18T11:39:09.073Z,28.11
2019-05-18T11:41:35.208Z,27.91
2019-05-18T11:44:02.075Z,27.76
2019-05-18T11:46:28.061Z,27.37
2019-05-18T11:48:54.067Z,27.28
2019-05-18T11:51:20.134Z,27.37
2019-05-18T11:53:57.488Z,26.98
2019-05-18T11:56:13.997Z,26.90
2019-05-18T11:58:40.000Z,26.94
2019-05-18T12:01:06.004Z,26.84
2019-05-18T12:03:31.985Z,26.63
2019-05-18T12:05:58.008Z,26.53
2019-05-18T12:08:24.029Z,26.61
2019-05-18T12:10:50.073Z,26.86
2019-05-18T12:13:16.072Z,27.28
2019-05-18T12:15:42.211Z,27.66
2019-05-18T12:18:08.506Z,27.55
2019-05-18T12:20:34.590Z,27.31
2019-05-18T12:23:00.557Z,27.04
2019-05-18T12:25:26.640Z,26.85
2019-05-18T12:27:52.777Z,27.04
2019-05-18T12:30:19.256Z,26.99
2019-05-18T12:32:45.290Z,26.82
2019-05-18T12:35:11.808Z,26.28
2019-05-18T12:37:37.973Z,26.04
2019-05-18T12:40:06.145Z,26.16
2019-05-18T12:42:32.266Z,26.46
2019-05-18T12:44:58.281Z,26.78
2019-05-18T12:47:24.289Z,26.25
2019-05-18T12:49:50.280Z,25.89
2019-05-18T12:52:16.356Z,25.63
2019-05-18T12:54:46.622Z,25.36
2019-05-18T12:57:10.255Z,25.07
2019-05-18T12:59:36.282Z,24.82
2019-05-18T13:02:02.565Z,24.88
2019-05-18T13:04:28.657Z,24.59
2019-05-18T13:06:54.688Z,24.48
2019-05-18T13:09:23.631Z,24.66
2019-05-18T13:11:48.669Z,24.88
2019-05-18T13:14:14.652Z,25.03
2019-05-18T13:16:40.706Z,24.99
2019-05-18T13:19:06.711Z,24.97
2019-05-18T13:21:33.200Z,24.64
2019-05-18T13:23:59.186Z,24.65
2019-05-18T13:26:25.222Z,25.02
2019-05-18T13:28:51.237Z,25.57
2019-05-18T13:31:17.236Z,25.48
2019-05-18T13:33:43.264Z,25.57
2019-05-18T13:36:09.290Z,25.68
2019-05-18T13:38:35.328Z,25.58
2019-05-18T13:41:01.371Z,25.76
2019-05-18T13:43:27.474Z,25.69
2019-05-18T13:45:53.443Z,25.95
2019-05-18T13:48:19.430Z,26.05
2019-05-18T13:50:45.441Z,26.04
2019-05-18T13:53:11.424Z,25.99
2019-05-18T13:55:37.491Z,25.77
2019-05-18T13:58:03.495Z,25.65
2019-05-18T14:00:29.523Z,25.80
2019-05-18T14:02:55.520Z,25.65
2019-05-18T14:05:21.566Z,25.54
2019-05-18T14:07:47.656Z,25.43
2019-05-18T14:10:13.947Z,25.97
2019-05-18T14:12:40.045Z,25.80
2019-05-18T14:15:08.127Z,25.80
2019-05-18T14:17:34.144Z,25.73
2019-05-18T14:20:00.481Z,25.59
2019-05-18T14:22:26.464Z,25.53
2019-05-18T14:24:52.463Z,25.23
2019-05-18T14:27:18.463Z,25.37
2019-05-18T14:29:44.513Z,25.35
2019-05-18T14:32:11.013Z,25.49
2019-05-18T14:34:37.179Z,25.42
2019-05-18T14:37:03.388Z,25.09
2019-05-18T14:39:29.645Z,25.04
2019-05-18T14:41:55.670Z,24.77
2019-05-18T14:44:21.693Z,24.33
2019-05-18T14:46:47.680Z,24.24
2019-05-18T14:49:13.768Z,24.04
2019-05-18T14:51:39.943Z,23.59
2019-05-18T14:54:05.997Z,23.38
2019-05-18T14:56:32.004Z,23.41
2019-05-18T14:58:57.993Z,23.41
2019-05-18T15:01:24.010Z,23.61
2019-05-18T15:03:49.984Z,23.84
2019-05-18T15:06:16.098Z,23.96
2019-05-18T15:08:42.211Z,24.04
2019-05-18T15:11:08.210Z,23.95
2019-05-18T15:13:34.328Z,23.96
2019-05-18T15:16:00.402Z,23.98
2019-05-18T15:18:26.473Z,23.95
2019-05-18T15:20:52.557Z,23.88
2019-05-18T15:23:18.622Z,23.85
2019-05-18T15:25:50.931Z,23.98
2019-05-18T15:28:12.542Z,24.05
2019-05-18T15:30:38.924Z,24.02
2019-05-18T15:33:05.005Z,23.77
2019-05-18T15:35:31.008Z,23.71
2019-05-18T15:37:57.054Z,23.59
2019-05-18T15:40:23.146Z,23.65
2019-05-18T15:42:49.185Z,23.51
2019-05-18T15:45:17.359Z,23.64
2019-05-18T15:47:43.388Z,23.69
2019-05-18T15:50:09.616Z,23.81
2019-05-18T15:52:35.662Z,23.72
2019-05-18T15:55:02.036Z,23.68
2019-05-18T15:57:28.023Z,23.75
2019-05-18T15:59:54.127Z,23.65
2019-05-18T16:02:20.140Z,23.69
2019-05-18T16:04:46.150Z,23.76
2019-05-18T16:07:12.207Z,23.83
2019-05-18T16:09:38.189Z,23.75
2019-05-18T16:12:04.387Z,23.42
2019-05-18T16:14:30.377Z,23.44
2019-05-18T16:16:56.382Z,23.36
2019-05-18T16:19:22.593Z,23.38
2019-05-18T16:21:48.565Z,23.21
2019-05-18T16:24:14.596Z,23.14
2019-05-18T16:26:40.579Z,23.14
2019-05-18T16:29:06.624Z,22.81
2019-05-18T16:31:32.630Z,22.67
2019-05-18T16:33:58.616Z,22.64
2019-05-18T16:36:24.663Z,22.46
2019-05-18T16:38:50.770Z,22.43
2019-05-18T16:41:16.939Z,22.49
2019-05-18T16:43:43.068Z,22.44
2019-05-18T16:46:09.080Z,22.37
2019-05-18T16:48:35.085Z,22.27
2019-05-18T16:51:01.238Z,22.16
2019-05-18T16:53:27.403Z,22.10
2019-05-18T16:55:53.519Z,22.07
2019-05-18T16:58:19.582Z,22.01
2019-05-18T17:00:45.591Z,22.01
2019-05-18T17:03:11.613Z,21.97
2019-05-18T17:05:37.688Z,21.80
2019-05-18T17:08:03.809Z,21.77
2019-05-18T17:10:30.109Z,21.84
2019-05-18T17:12:56.226Z,21.69
2019-05-18T17:15:22.947Z,21.57
2019-05-18T17:17:48.929Z,21.66
2019-05-18T17:20:15.641Z,21.48
2019-05-18T17:22:41.710Z,21.38
2019-05-18T17:25:08.329Z,21.33
2019-05-18T17:27:34.315Z,21.21
2019-05-18T17:30:00.524Z,21.16
2019-05-18T17:32:26.669Z,21.23
2019-05-18T17:34:52.644Z,21.14
2019-05-18T17:37:18.672Z,21.17
2019-05-18T17:39:44.692Z,21.14
2019-05-18T17:42:10.700Z,21.05
2019-05-18T17:44:37.163Z,20.87
2019-05-18T17:47:03.355Z,20.95
2019-05-18T17:49:29.526Z,20.85
2019-05-18T17:51:55.564Z,20.92
2019-05-18T17:54:21.562Z,20.85
2019-05-18T17:56:47.612Z,20.79
2019-05-18T17:59:13.653Z,20.83
2019-05-18T18:01:39.717Z,20.81
2019-05-18T18:04:05.754Z,20.71
2019-05-18T18:06:31.748Z,20.61
2019-05-18T18:08:57.752Z,20.40
2019-05-18T18:11:23.836Z,20.47
2019-05-18T18:13:49.871Z,20.26
2019-05-18T18:16:15.974Z,20.11
2019-05-18T18:18:42.065Z,20.03
2019-05-18T18:21:08.147Z,19.98
2019-05-18T18:23:34.165Z,20.01
2019-05-18T18:26:00.204Z,19.95
2019-05-18T18:28:26.242Z,19.88
2019-05-18T18:30:52.251Z,19.87
2019-05-18T18:33:18.302Z,19.84
2019-05-18T18:35:44.322Z,19.86
2019-05-18T18:38:10.312Z,19.66
2019-05-18T18:40:36.360Z,19.57
2019-05-18T18:43:02.419Z,19.57
2019-05-18T18:45:28.409Z,19.56
2019-05-18T18:47:54.436Z,19.53
2019-05-18T18:50:20.488Z,19.44
2019-05-18T18:52:46.533Z,19.28
2019-05-18T18:55:13.145Z,19.31
2019-05-18T18:57:41.877Z,19.32
2019-05-18T19:00:07.902Z,19.38
2019-05-18T19:02:33.990Z,19.28
2019-05-18T19:05:00.110Z,19.13
2019-05-18T19:07:26.208Z,18.92
2019-05-18T19:09:52.209Z,18.85
2019-05-18T19:12:18.172Z,18.73
2019-05-18T19:14:44.206Z,18.62
2019-05-18T19:17:10.185Z,18.68
2019-05-18T19:19:36.167Z,18.63
2019-05-18T19:22:02.197Z,18.59
2019-05-18T19:24:28.209Z,18.57
2019-05-18T19:26:54.362Z,18.55
2019-05-18T19:29:20.441Z,18.51
2019-05-18T19:31:46.417Z,18.50
2019-05-18T19:34:12.424Z,18.52
2019-05-18T19:36:38.424Z,18.39
2019-05-18T19:39:04.769Z,18.47
2019-05-18T19:41:30.752Z,18.46
2019-05-18T19:43:56.890Z,18.39
2019-05-18T19:46:22.928Z,18.17
2019-05-18T19:48:48.949Z,18.19
2019-05-18T19:51:16.166Z,18.19
2019-05-18T19:53:42.349Z,18.02
2019-05-18T19:56:08.720Z,17.97
2019-05-18T19:58:34.701Z,17.96
2019-05-18T20:01:00.684Z,18.08
2019-05-18T20:03:26.691Z,17.97
2019-05-18T20:05:52.730Z,18.04
2019-05-18T20:08:18.754Z,17.97
2019-05-18T20:10:45.076Z,17.91
2019-05-18T20:13:11.153Z,17.98
2019-05-18T20:15:37.179Z,17.84
2019-05-18T20:18:03.185Z,17.83
2019-05-18T20:20:29.197Z,17.80
2019-05-18T20:22:55.172Z,17.68
2019-05-18T20:25:21.174Z,17.75
2019-05-18T20:27:47.177Z,17.88
2019-05-18T20:30:13.849Z,17.76
2019-05-18T20:32:39.900Z,17.72
2019-05-18T20:35:06.119Z,17.66
2019-05-18T20:37:32.118Z,17.58
2019-05-18T20:39:58.101Z,17.48
2019-05-18T20:42:24.142Z,17.48
2019-05-18T20:44:50.263Z,17.54
2019-05-18T20:47:16.252Z,17.50
2019-05-18T20:49:42.297Z,17.44
2019-05-18T20:52:08.364Z,17.43
2019-05-18T20:54:34.466Z,17.36
2019-05-18T20:57:00.633Z,17.26
2019-05-18T20:59:26.617Z,17.05
2019-05-18T21:01:52.644Z,17.05
2019-05-18T21:04:18.622Z,17.06
2019-05-18T21:06:45.670Z,16.91
2019-05-18T21:09:11.926Z,16.95
2019-05-18T21:11:38.060Z,16.81
2019-05-18T21:14:04.045Z,16.86
2019-05-18T21:16:33.411Z,16.64
2019-05-18T21:18:59.436Z,16.65
2019-05-18T21:21:26.639Z,16.59
2019-05-18T21:23:52.938Z,16.63
2019-05-18T21:26:18.904Z,16.66
2019-05-18T21:28:55.568Z,16.75
2019-05-18T21:31:12.795Z,16.63
2019-05-18T21:33:38.769Z,16.70
2019-05-18T21:36:04.934Z,16.67
2019-05-18T21:38:31.012Z,16.60
2019-05-18T21:40:57.043Z,16.59
2019-05-18T21:43:23.094Z,16.52
2019-05-18T21:45:49.104Z,16.49
2019-05-18T21:48:15.201Z,16.37
2019-05-18T21:50:41.250Z,16.34
2019-05-18T21:53:07.257Z,16.36
2019-05-18T21:55:33.830Z,16.40
2019-05-18T21:57:59.864Z,16.33
2019-05-18T22:00:26.136Z,16.27
2019-05-18T22:02:52.246Z,16.25
2019-05-18T22:05:18.211Z,16.26
2019-05-18T22:07:44.994Z,16.32
2019-05-18T22:10:24.865Z,16.33
2019-05-18T22:12:39.261Z,16.25
2019-05-18T22:15:06.215Z,16.08
2019-05-18T22:17:34.101Z,16.03
2019-05-18T22:20:00.082Z,15.86
2019-05-18T22:22:26.099Z,16.16
2019-05-18T22:24:52.114Z,16.10
2019-05-18T22:27:18.211Z,15.96
2019-05-18T22:29:44.225Z,15.87
2019-05-18T22:32:10.193Z,15.87
2019-05-18T22:34:36.595Z,15.87
2019-05-18T22:37:02.564Z,15.97
2019-05-18T22:39:28.556Z,15.85
2019-05-18T22:41:54.634Z,15.99
2019-05-18T22:44:20.690Z,15.87
2019-05-18T22:46:46.653Z,15.76
2019-05-18T22:49:12.700Z,15.75
2019-05-18T22:51:38.675Z,15.83
2019-05-18T22:54:05.070Z,15.88
2019-05-18T22:56:31.147Z,15.86
2019-05-18T22:58:57.195Z,15.75
2019-05-18T23:01:23.213Z,15.59
2019-05-18T23:03:51.667Z,15.66
2019-05-18T23:06:17.520Z,15.83
2019-05-18T23:08:43.505Z,15.65
2019-05-18T23:11:09.540Z,15.68
2019-05-18T23:13:35.591Z,16.07
2019-05-18T23:16:01.649Z,16.35
2019-05-18T23:18:27.624Z,16.57
2019-05-18T23:20:53.642Z,16.66
2019-05-18T23:23:19.662Z,15.99
2019-05-18T23:25:45.644Z,15.86
2019-05-18T23:28:11.784Z,15.63
2019-05-18T23:30:37.837Z,15.62
2019-05-18T23:33:03.859Z,15.62
2019-05-18T23:35:29.840Z,15.60
2019-05-18T23:37:56.068Z,15.66
2019-05-18T23:40:22.080Z,15.58
2019-05-18T23:42:48.124Z,15.60
2019-05-18T23:45:14.329Z,15.74
2019-05-18T23:47:40.377Z,15.52
2019-05-18T23:50:06.652Z,15.66
2019-05-18T23:52:32.693Z,15.45
2019-05-18T23:54:58.680Z,15.55
2019-05-18T23:57:24.761Z,15.22
2019-05-18T23:59:50.844Z,15.26
